Time;durP1;ratioP1;P1;durP2;ratioP2;P2;SDS_P1;SDS_P2;PMS_P1;PMS_P2;Temp;Humidity;BMP_temperature;BMP_pressure;BME280_temperature;BME280_humidity;BME280_pressure;Samples;Min_cycle;Max_cycle;Signal;HPM_P1;HPM_P2
2021/10/12 00:00:14;;;;;;;26.20;18.23;;;12.40;99.90;;;;;;5012359;28;20022;-79
2021/10/12 00:02:40;;;;;;;20.92;14.20;;;12.30;99.90;;;;;;5013672;28;20026;-79
2021/10/12 00:05:07;;;;;;;18.27;13.13;;;12.20;99.90;;;;;;5013120;28;20380;-79
2021/10/12 00:07:32;;;;;;;17.98;12.48;;;12.10;99.90;;;;;;5013715;28;20037;-78
2021/10/12 00:09:58;;;;;;;15.10;10.82;;;12.10;99.90;;;;;;5013619;28;20029;-77
2021/10/12 00:12:24;;;;;;;19.65;12.68;;;12.00;99.90;;;;;;5011149;28;20025;-76
2021/10/12 00:14:50;;;;;;;17.25;11.15;;;12.00;99.90;;;;;;5012637;28;20116;-77
2021/10/12 00:17:15;;;;;;;15.68;11.30;;;12.00;99.90;;;;;;5013708;28;20104;-79
2021/10/12 00:19:41;;;;;;;14.55;10.95;;;11.90;99.90;;;;;;5013463;28;20014;-79
2021/10/12 00:22:07;;;;;;;15.15;10.95;;;11.90;99.90;;;;;;5012397;28;20025;-79
2021/10/12 00:24:33;;;;;;;17.02;10.90;;;12.00;99.90;;;;;;5013674;28;20109;-79
2021/10/12 00:26:59;;;;;;;17.08;11.20;;;11.90;99.90;;;;;;5013583;28;20072;-79
2021/10/12 00:29:24;;;;;;;15.45;12.15;;;11.80;99.90;;;;;;5011360;28;20224;-79
2021/10/12 00:31:50;;;;;;;21.25;11.35;;;11.80;99.90;;;;;;5010497;28;20040;-79
2021/10/12 00:34:18;;;;;;;18.73;11.85;;;11.80;99.90;;;;;;5010469;28;20018;-79
2021/10/12 00:36:45;;;;;;;194.25;116.32;;;11.80;99.90;;;;;;5011955;28;20104;-79
2021/10/12 00:39:11;;;;;;;72.30;42.15;;;11.90;99.90;;;;;;5012163;28;20058;-79
2021/10/12 00:41:38;;;;;;;31.70;20.00;;;11.90;99.90;;;;;;5011707;28;20471;-79
2021/10/12 00:44:06;;;;;;;20.02;13.95;;;11.90;99.90;;;;;;5010843;28;20034;-79
2021/10/12 00:46:32;;;;;;;19.85;13.18;;;11.90;99.90;;;;;;5010501;28;20072;-79
2021/10/12 00:48:58;;;;;;;23.17;11.95;;;11.80;99.90;;;;;;5008676;28;20022;-79
2021/10/12 00:51:25;;;;;;;18.75;12.07;;;11.80;99.90;;;;;;5011126;28;20025;-79
2021/10/12 00:53:51;;;;;;;20.75;12.70;;;11.80;99.90;;;;;;5011869;28;20014;-79
2021/10/12 00:56:17;;;;;;;18.75;12.07;;;11.80;99.90;;;;;;5010243;28;20053;-79
2021/10/12 00:58:43;;;;;;;20.90;13.15;;;11.90;99.90;;;;;;5010295;28;20057;-79
2021/10/12 01:01:09;;;;;;;19.40;11.85;;;11.80;99.90;;;;;;5010589;28;20063;-77
2021/10/12 01:03:34;;;;;;;17.80;12.15;;;11.80;99.90;;;;;;5009125;28;20045;-77
2021/10/12 01:06:01;;;;;;;21.23;12.88;;;11.80;99.90;;;;;;5011165;28;20399;-77
2021/10/12 01:08:26;;;;;;;18.67;12.40;;;11.80;99.90;;;;;;5009059;28;20041;-77
2021/10/12 01:10:52;;;;;;;16.85;12.00;;;11.80;99.90;;;;;;5009784;28;20018;-77
2021/10/12 01:13:18;;;;;;;18.90;12.15;;;11.70;99.90;;;;;;5009690;28;20435;-77
2021/10/12 01:15:44;;;;;;;20.05;12.50;;;11.70;99.90;;;;;;4998785;28;20124;-77
2021/10/12 01:18:12;;;;;;;24.98;12.30;;;11.70;99.90;;;;;;4990039;28;20027;-77
2021/10/12 01:20:39;;;;;;;18.35;12.38;;;11.70;99.90;;;;;;5005321;28;20054;-77
2021/10/12 01:23:06;;;;;;;19.08;13.25;;;11.60;99.90;;;;;;5005819;28;20022;-77
2021/10/12 01:25:32;;;;;;;22.48;13.00;;;11.70;99.90;;;;;;4992672;28;20034;-77
2021/10/12 01:27:59;;;;;;;17.42;12.38;;;11.70;99.90;;;;;;4993594;28;20125;-78
2021/10/12 01:30:25;;;;;;;18.55;12.48;;;11.70;99.90;;;;;;4994459;28;20023;-77
2021/10/12 01:32:50;;;;;;;18.90;12.35;;;11.80;99.90;;;;;;4995433;28;20033;-78
2021/10/12 01:35:16;;;;;;;21.48;12.38;;;11.80;99.90;;;;;;5013215;28;20105;-77
2021/10/12 01:37:42;;;;;;;20.95;13.10;;;11.80;99.90;;;;;;5015076;28;20429;-77
2021/10/12 01:40:10;;;;;;;17.25;12.80;;;11.70;99.90;;;;;;5015297;28;20109;-78
2021/10/12 01:42:36;;;;;;;21.60;14.07;;;11.70;99.90;;;;;;5015412;28;20080;-77
2021/10/12 01:45:06;;;;;;;24.00;12.52;;;11.70;99.90;;;;;;5015500;28;20025;-77
2021/10/12 01:47:32;;;;;;;18.48;12.70;;;11.70;99.90;;;;;;5031089;28;20034;-77
2021/10/12 01:49:58;;;;;;;21.70;13.55;;;11.70;99.90;;;;;;5016160;28;20029;-77
2021/10/12 01:52:24;;;;;;;21.95;13.52;;;11.70;99.90;;;;;;5015586;28;20025;-77
2021/10/12 01:54:50;;;;;;;19.33;13.65;;;11.70;99.90;;;;;;5030005;28;20076;-77
2021/10/12 01:57:18;;;;;;;21.90;14.07;;;11.70;99.90;;;;;;5014958;28;20025;-77
2021/10/12 01:59:44;;;;;;;24.98;14.30;;;11.70;99.90;;;;;;5014836;28;20006;-77
2021/10/12 02:02:10;;;;;;;20.73;13.80;;;11.70;99.90;;;;;;5029872;28;20114;-77
2021/10/12 02:04:36;;;;;;;20.48;12.63;;;11.70;99.90;;;;;;5014771;28;20486;-78
2021/10/12 02:07:02;;;;;;;26.00;13.50;;;11.70;99.90;;;;;;5013392;28;20037;-77
2021/10/12 02:09:29;;;;;;;19.30;13.25;;;11.70;99.90;;;;;;5013362;28;20056;-77
2021/10/12 02:11:55;;;;;;;21.77;13.50;;;11.60;99.90;;;;;;5014785;28;20117;-77
2021/10/12 02:14:20;;;;;;;25.30;13.85;;;11.60;99.90;;;;;;5013115;28;20169;-77
2021/10/12 02:16:46;;;;;;;20.20;13.52;;;11.50;99.90;;;;;;5014613;28;20029;-77
2021/10/12 02:19:12;;;;;;;18.98;13.13;;;11.50;99.90;;;;;;5013126;28;20356;-77
2021/10/12 02:21:38;;;;;;;26.17;14.32;;;11.50;99.90;;;;;;5013298;28;20117;-77
2021/10/12 02:24:04;;;;;;;19.05;13.80;;;11.50;99.90;;;;;;5014268;28;20119;-77
2021/10/12 02:26:30;;;;;;;23.77;14.18;;;11.50;99.90;;;;;;5014419;28;20491;-77
2021/10/12 02:28:55;;;;;;;25.00;14.32;;;11.50;99.90;;;;;;5014235;28;20057;-77
2021/10/12 02:31:21;;;;;;;20.15;13.95;;;11.50;99.90;;;;;;5014199;28;20410;-77
2021/10/12 02:33:47;;;;;;;21.88;13.10;;;11.50;99.90;;;;;;5014133;28;20025;-77
2021/10/12 02:36:12;;;;;;;21.52;13.68;;;11.40;99.90;;;;;;5013091;28;20104;-77
2021/10/12 02:38:40;;;;;;;21.50;13.05;;;11.40;99.90;;;;;;5014208;28;20026;-77
2021/10/12 02:41:06;;;;;;;19.98;14.05;;;11.40;99.90;;;;;;5014037;28;20022;-77
2021/10/12 02:43:32;;;;;;;21.17;13.52;;;11.50;99.90;;;;;;5012679;28;20080;-77
2021/10/12 02:45:58;;;;;;;21.23;13.90;;;11.40;99.90;;;;;;5013875;28;20488;-77
2021/10/12 02:48:24;;;;;;;20.40;13.90;;;11.40;99.90;;;;;;5012687;28;20649;-77
2021/10/12 02:50:50;;;;;;;25.15;14.00;;;11.40;99.90;;;;;;5012560;28;20028;-77
2021/10/12 02:53:17;;;;;;;21.85;14.40;;;11.50;99.90;;;;;;5013404;28;20026;-77
2021/10/12 02:55:44;;;;;;;22.02;14.15;;;11.50;99.90;;;;;;5012523;28;20025;-76
2021/10/12 02:58:10;;;;;;;21.30;14.05;;;11.50;99.90;;;;;;5012344;28;20472;-77
2021/10/12 03:00:36;;;;;;;23.05;14.50;;;11.50;99.90;;;;;;5013679;28;20080;-77
2021/10/12 03:03:02;;;;;;;21.98;14.18;;;11.50;99.90;;;;;;5012266;28;20030;-77
2021/10/12 03:05:28;;;;;;;19.40;13.23;;;11.60;99.90;;;;;;5012199;28;20064;-77
2021/10/12 03:07:54;;;;;;;20.17;13.73;;;11.50;99.90;;;;;;5009279;28;20028;-77
2021/10/12 03:10:20;;;;;;;21.20;12.85;;;11.60;99.90;;;;;;5013378;28;20026;-77
2021/10/12 03:12:46;;;;;;;19.85;12.73;;;11.60;99.90;;;;;;5045132;28;20033;-77
2021/10/12 03:15:12;;;;;;;21.83;13.63;;;11.60;99.90;;;;;;5013322;28;20029;-77
2021/10/12 03:17:38;;;;;;;18.65;12.88;;;11.60;99.90;;;;;;5013307;28;20522;-77
2021/10/12 03:20:06;;;;;;;19.33;12.90;;;11.50;99.90;;;;;;5013670;28;20050;-77
2021/10/12 03:22:31;;;;;;;19.92;13.75;;;11.50;99.90;;;;;;5011734;28;20442;-77
2021/10/12 03:24:57;;;;;;;20.40;13.38;;;11.50;99.90;;;;;;5028456;28;20128;-77
2021/10/12 03:27:23;;;;;;;23.60;13.27;;;11.50;99.90;;;;;;5013008;28;20388;-77
2021/10/12 03:29:49;;;;;;;21.42;13.68;;;11.50;99.90;;;;;;5013206;28;20030;-77
2021/10/12 03:32:15;;;;;;;19.83;13.32;;;11.50;99.90;;;;;;5012996;28;20040;-77
2021/10/12 03:34:41;;;;;;;20.33;12.95;;;11.50;99.90;;;;;;5012867;28;20037;-77
2021/10/12 03:37:07;;;;;;;21.33;13.45;;;11.50;99.90;;;;;;5011663;28;20104;-77
2021/10/12 03:39:33;;;;;;;22.42;13.90;;;11.50;99.90;;;;;;5012855;28;20029;-77
2021/10/12 03:41:58;;;;;;;20.77;12.60;;;11.50;99.90;;;;;;5011525;28;20026;-77
2021/10/12 03:44:25;;;;;;;19.90;13.10;;;11.50;99.90;;;;;;5012779;28;20032;-77
2021/10/12 03:46:51;;;;;;;24.05;13.43;;;11.50;99.90;;;;;;5012778;28;20081;-77
2021/10/12 03:49:17;;;;;;;25.65;13.23;;;11.50;99.90;;;;;;5012785;28;20506;-77
2021/10/12 03:51:43;;;;;;;23.52;13.40;;;11.50;99.90;;;;;;5012737;28;20547;-77
2021/10/12 03:54:13;;;;;;;21.13;12.80;;;11.40;99.90;;;;;;5011582;28;20378;-77
2021/10/12 03:56:40;;;;;;;21.15;13.25;;;11.40;99.90;;;;;;5012511;28;20037;-77
2021/10/12 03:59:06;;;;;;;23.55;14.00;;;11.40;99.90;;;;;;5011436;28;20053;-77
2021/10/12 04:01:32;;;;;;;24.55;13.25;;;11.40;99.90;;;;;;5012433;28;20093;-77
2021/10/12 04:04:00;;;;;;;20.25;13.43;;;11.50;99.90;;;;;;5005953;28;20508;-77
2021/10/12 04:06:25;;;;;;;20.10;12.90;;;11.50;99.90;;;;;;4993039;28;20031;-77
2021/10/12 04:08:51;;;;;;;22.63;13.23;;;11.50;99.90;;;;;;4991411;28;20488;-77
2021/10/12 04:11:17;;;;;;;18.52;12.75;;;11.50;99.90;;;;;;4991468;28;20062;-77
2021/10/12 04:13:43;;;;;;;19.15;13.18;;;11.50;99.90;;;;;;4992762;28;20034;-77
2021/10/12 04:16:09;;;;;;;18.15;12.73;;;11.50;99.90;;;;;;4992796;28;20125;-77
2021/10/12 04:18:35;;;;;;;24.52;13.50;;;11.60;99.90;;;;;;4992533;28;20109;-77
2021/10/12 04:21:01;;;;;;;23.45;14.43;;;11.60;99.90;;;;;;4992819;28;20022;-77
2021/10/12 04:23:26;;;;;;;18.73;11.98;;;11.60;99.90;;;;;;4992500;28;20495;-77
2021/10/12 04:25:52;;;;;;;19.77;12.57;;;11.60;99.90;;;;;;4992734;28;20479;-77
2021/10/12 04:28:18;;;;;;;21.60;13.50;;;11.60;99.90;;;;;;4992618;28;20112;-77
2021/10/12 04:30:45;;;;;;;18.98;12.27;;;11.60;99.90;;;;;;4992383;28;20062;-77
2021/10/12 04:33:15;;;;;;;19.52;13.02;;;11.60;99.90;;;;;;4992752;28;20109;-77
2021/10/12 04:35:44;;;;;;;19.63;13.23;;;11.60;99.90;;;;;;5010558;28;20042;-77
2021/10/12 04:38:09;;;;;;;20.27;12.38;;;11.60;99.90;;;;;;5010749;28;20064;-77
2021/10/12 04:40:36;;;;;;;21.38;13.90;;;11.60;99.90;;;;;;5011880;28;20502;-77
2021/10/12 04:43:04;;;;;;;21.15;12.93;;;11.60;99.90;;;;;;5010724;28;20121;-77
2021/10/12 04:45:30;;;;;;;22.58;13.27;;;11.60;99.90;;;;;;5011721;28;20100;-77
2021/10/12 04:47:57;;;;;;;18.48;12.77;;;11.60;99.90;;;;;;5010794;28;20121;-77
2021/10/12 04:50:23;;;;;;;19.13;11.85;;;11.60;99.90;;;;;;5011820;28;20392;-77
2021/10/12 04:52:49;;;;;;;18.92;12.80;;;11.60;99.90;;;;;;5010481;28;20056;-77
2021/10/12 04:55:14;;;;;;;20.83;11.82;;;11.60;99.90;;;;;;5011742;28;20040;-77
2021/10/12 04:57:40;;;;;;;18.73;12.40;;;11.60;99.90;;;;;;5011002;28;20041;-77
2021/10/12 05:00:07;;;;;;;23.42;12.95;;;11.50;99.90;;;;;;5011862;28;20387;-77
2021/10/12 05:02:33;;;;;;;20.60;12.00;;;11.50;99.90;;;;;;5009400;28;20041;-77
2021/10/12 05:04:59;;;;;;;18.73;12.38;;;11.50;99.90;;;;;;5011788;28;20034;-77
2021/10/12 05:07:25;;;;;;;18.63;12.38;;;11.50;99.90;;;;;;5011699;28;20029;-78
2021/10/12 05:09:51;;;;;;;18.33;11.90;;;11.50;99.90;;;;;;5010631;28;20037;-77
2021/10/12 05:12:17;;;;;;;19.75;12.52;;;11.40;99.90;;;;;;5009396;28;20120;-77
2021/10/12 05:14:43;;;;;;;19.95;12.73;;;11.50;99.90;;;;;;5010647;28;20065;-78
2021/10/12 05:17:25;;;;;;;19.67;11.88;;;11.50;99.90;;;;;;5025117;28;20168;-78
2021/10/12 05:19:50;;;;;;;20.08;12.02;;;11.50;99.90;;;;;;5010217;28;20105;-77
2021/10/12 05:22:16;;;;;;;23.00;12.40;;;11.50;99.90;;;;;;5009054;28;20114;-78
2021/10/12 05:24:42;;;;;;;19.70;11.98;;;11.50;99.90;;;;;;5010616;28;20026;-78
2021/10/12 05:27:08;;;;;;;17.55;11.27;;;11.60;99.90;;;;;;5010574;28;20054;-78
2021/10/12 05:29:34;;;;;;;18.65;12.18;;;11.60;99.90;;;;;;5010355;28;20072;-78
2021/10/12 05:32:00;;;;;;;16.50;11.35;;;11.70;99.90;;;;;;5012454;28;20076;-78
2021/10/12 05:34:26;;;;;;;17.15;11.55;;;11.70;99.90;;;;;;5012130;28;20026;-78
2021/10/12 05:36:52;;;;;;;18.40;11.88;;;11.70;99.90;;;;;;5011144;28;20042;-78
2021/10/12 05:39:18;;;;;;;18.13;11.48;;;11.70;99.90;;;;;;5010224;28;20090;-78
2021/10/12 05:41:43;;;;;;;20.25;11.35;;;11.80;99.90;;;;;;5011179;28;20014;-78
2021/10/12 05:44:09;;;;;;;20.05;11.63;;;11.80;99.90;;;;;;5011317;28;20480;-78
2021/10/12 05:46:35;;;;;;;24.70;12.00;;;11.80;99.90;;;;;;5011164;28;20026;-78
2021/10/12 05:49:01;;;;;;;18.70;11.82;;;11.80;99.90;;;;;;5043113;28;20112;-78
2021/10/12 05:51:27;;;;;;;17.60;11.98;;;11.90;99.90;;;;;;5011124;28;20030;-78
2021/10/12 05:53:55;;;;;;;22.27;12.95;;;11.90;99.90;;;;;;5026275;28;20026;-78
2021/10/12 05:56:27;;;;;;;19.90;11.88;;;12.00;99.90;;;;;;5009876;28;20459;-78
2021/10/12 05:58:53;;;;;;;;;;;12.00;99.90;;;;;;5011682;28;20072;-78
2021/10/12 06:01:20;;;;;;;16.30;10.98;;;12.10;99.90;;;;;;5009705;28;19906;-78
2021/10/12 06:03:46;;;;;;;18.35;11.27;;;12.10;99.90;;;;;;5009904;28;20072;-78
2021/10/12 06:06:12;;;;;;;15.98;11.25;;;12.10;99.90;;;;;;5009716;28;20022;-78
2021/10/12 06:08:42;;;;;;;20.05;11.73;;;12.10;99.90;;;;;;5011149;28;20034;-78
2021/10/12 06:11:10;;;;;;;16.70;11.25;;;12.00;99.90;;;;;;5011979;28;20030;-78
2021/10/12 06:13:38;;;;;;;24.27;12.68;;;12.10;99.90;;;;;;5013262;28;20112;-78
2021/10/12 06:16:04;;;;;;;20.15;11.50;;;12.10;99.90;;;;;;5012963;28;20033;-78
2021/10/12 06:18:30;;;;;;;19.65;11.90;;;12.10;99.90;;;;;;5014531;28;20048;-78
2021/10/12 06:20:56;;;;;;;18.02;11.50;;;12.10;99.90;;;;;;5014441;28;20539;-78
2021/10/12 06:23:23;;;;;;;20.88;12.30;;;12.20;99.90;;;;;;5013409;28;20026;-78
2021/10/12 06:25:51;;;;;;;23.13;11.60;;;12.20;99.90;;;;;;5013119;28;20022;-78
2021/10/12 06:28:18;;;;;;;14.80;10.63;;;12.20;99.90;;;;;;5047259;28;20030;-78
2021/10/12 06:30:44;;;;;;;18.27;10.77;;;12.20;99.90;;;;;;5046496;28;20491;-78
2021/10/12 06:33:11;;;;;;;16.60;10.23;;;12.30;99.90;;;;;;5015096;28;20031;-79
2021/10/12 06:35:37;;;;;;;14.63;10.18;;;12.30;99.90;;;;;;5014873;28;20486;-78
2021/10/12 06:38:03;;;;;;;14.93;10.27;;;12.30;99.90;;;;;;5014336;28;20030;-78
2021/10/12 06:40:30;;;;;;;20.73;10.20;;;12.40;99.90;;;;;;5015534;28;20506;-78
2021/10/12 06:42:57;;;;;;;16.75;10.10;;;12.40;99.90;;;;;;5014170;28;20038;-78
2021/10/12 06:45:23;;;;;;;14.68;10.30;;;12.50;99.90;;;;;;5015284;28;20038;-77
2021/10/12 06:47:49;;;;;;;19.33;10.38;;;12.50;99.90;;;;;;5013658;28;20034;-77
2021/10/12 06:50:17;;;;;;;19.48;11.25;;;12.50;99.90;;;;;;5015434;28;20036;-78
2021/10/12 06:52:42;;;;;;;16.48;10.65;;;12.50;99.90;;;;;;5013823;28;20368;-77
2021/10/12 06:55:09;;;;;;;15.43;10.13;;;12.50;99.90;;;;;;5013943;28;20038;-77
2021/10/12 06:57:36;;;;;;;16.20;10.25;;;12.50;99.90;;;;;;5015022;28;20021;-77
2021/10/12 07:00:04;;;;;;;13.02;9.02;;;12.60;99.90;;;;;;5015141;28;20033;-77
2021/10/12 07:02:30;;;;;;;17.38;10.10;;;12.60;99.90;;;;;;5013251;28;20022;-77
2021/10/12 07:04:55;;;;;;;12.82;8.40;;;12.60;99.90;;;;;;5014661;28;20487;-78
2021/10/12 07:07:21;;;;;;;15.75;9.60;;;12.60;99.90;;;;;;5030158;28;20041;-77
2021/10/12 07:09:47;;;;;;;13.02;9.25;;;12.60;99.90;;;;;;5014153;28;20029;-78
2021/10/12 07:12:12;;;;;;;12.88;8.95;;;12.70;99.90;;;;;;5013622;28;20037;-78
2021/10/12 07:14:38;;;;;;;15.60;9.35;;;12.70;99.90;;;;;;5014769;28;20066;-78
2021/10/12 07:17:04;;;;;;;17.48;8.82;;;12.80;99.90;;;;;;5014316;28;20029;-78
2021/10/12 07:19:29;;;;;;;15.07;9.00;;;12.80;99.90;;;;;;5014760;28;20022;-78
2021/10/12 07:21:55;;;;;;;20.13;9.75;;;12.90;99.90;;;;;;5017065;28;20369;-78
2021/10/12 07:24:22;;;;;;;16.60;9.55;;;12.90;99.90;;;;;;5014679;28;20026;-78
2021/10/12 07:26:49;;;;;;;10.45;7.80;;;13.00;99.90;;;;;;5013006;28;20037;-78
2021/10/12 07:29:15;;;;;;;15.52;8.95;;;13.00;99.90;;;;;;5012597;28;20033;-77
2021/10/12 07:31:41;;;;;;;16.35;8.70;;;13.10;99.90;;;;;;5010364;28;20034;-79
2021/10/12 07:34:08;;;;;;;15.15;8.43;;;13.10;99.90;;;;;;5011491;28;20561;-79
2021/10/12 07:36:34;;;;;;;20.75;8.43;;;13.10;99.90;;;;;;5010961;28;20054;-79
2021/10/12 07:39:00;;;;;;;13.88;8.35;;;13.20;99.90;;;;;;5026527;28;20073;-79
2021/10/12 07:41:26;;;;;;;13.68;8.30;;;13.20;99.90;;;;;;5011397;28;20026;-79
2021/10/12 07:43:52;;;;;;;10.80;7.95;;;13.30;99.90;;;;;;5012919;28;20052;-79
2021/10/12 07:46:17;;;;;;;13.27;8.05;;;13.30;99.90;;;;;;5012877;28;20061;-79
2021/10/12 07:48:43;;;;;;;13.05;8.25;;;13.30;99.90;;;;;;5012880;28;20492;-79
2021/10/12 07:51:09;;;;;;;23.50;11.25;;;13.40;99.90;;;;;;5012929;28;20105;-79
2021/10/12 07:53:37;;;;;;;22.02;11.95;;;13.40;99.90;;;;;;5027887;28;20034;-79
2021/10/12 07:56:07;;;;;;;25.48;11.82;;;13.50;99.90;;;;;;5044392;28;20076;-79
2021/10/12 07:58:33;;;;;;;18.75;10.63;;;13.50;99.90;;;;;;5028044;28;20022;-79
2021/10/12 08:00:58;;;;;;;13.70;10.02;;;13.60;99.90;;;;;;5027638;28;20113;-79
2021/10/12 08:03:24;;;;;;;11.80;8.48;;;13.60;99.90;;;;;;5012656;28;20495;-79
2021/10/12 08:05:50;;;;;;;11.68;7.95;;;13.70;99.90;;;;;;5012463;28;20029;-79
2021/10/12 08:08:15;;;;;;;15.05;7.70;;;13.70;99.90;;;;;;5027855;28;20029;-79
2021/10/12 08:10:41;;;;;;;16.48;7.43;;;13.80;99.90;;;;;;5012327;28;20030;-79
2021/10/12 08:13:14;;;;;;;9.50;7.28;;;13.90;99.90;;;;;;5012346;28;20030;-79
2021/10/12 08:15:43;;;;;;;8.18;6.53;;;13.90;99.90;;;;;;5027372;28;20710;-79
2021/10/12 08:18:08;;;;;;;11.18;6.45;;;13.90;99.90;;;;;;5012431;28;20527;-79
2021/10/12 08:20:34;;;;;;;10.55;6.47;;;14.00;99.90;;;;;;5027389;28;20105;-79
2021/10/12 08:23:00;;;;;;;10.25;6.93;;;14.10;99.90;;;;;;5044085;28;20032;-79
2021/10/12 08:25:25;;;;;;;13.10;7.88;;;14.10;99.90;;;;;;5012088;28;20117;-79
2021/10/12 08:27:51;;;;;;;14.93;8.98;;;14.20;99.90;;;;;;5012296;28;20033;-79
2021/10/12 08:30:17;;;;;;;11.30;8.73;;;14.30;99.90;;;;;;5012084;28;20026;-79
2021/10/12 08:32:43;;;;;;;16.52;9.13;;;14.40;99.90;;;;;;5011234;28;20053;-79
2021/10/12 08:35:10;;;;;;;16.52;9.45;;;14.40;99.90;;;;;;5012173;28;20053;-79
2021/10/12 08:37:37;;;;;;;18.10;9.45;;;14.50;99.90;;;;;;5011816;28;20058;-79
2021/10/12 08:40:11;;;;;;;16.33;9.75;;;14.60;99.90;;;;;;5012158;28;20018;-79
2021/10/12 08:42:44;;;;;;;17.77;11.32;;;14.60;99.90;;;;;;5043627;28;20025;-79
2021/10/12 08:45:11;;;;;;;20.13;11.32;;;14.60;99.90;;;;;;5012028;28;20022;-79
2021/10/12 08:47:37;;;;;;;17.13;10.23;;;14.60;99.90;;;;;;5012302;28;20036;-79
2021/10/12 08:50:06;;;;;;;16.42;10.15;;;14.60;99.90;;;;;;5012749;28;20383;-79
2021/10/12 08:52:32;;;;;;;15.88;10.38;;;14.60;99.90;;;;;;5011398;28;20125;-79
2021/10/12 08:54:57;;;;;;;14.27;10.50;;;14.60;99.90;;;;;;5010657;28;20108;-79
2021/10/12 08:57:34;;;;;;;19.52;11.02;;;14.60;99.90;;;;;;5012125;28;20026;-79
2021/10/12 09:00:06;;;;;;;16.25;10.23;;;14.60;99.90;;;;;;5012143;28;20133;-79
2021/10/12 09:02:32;;;;;;;21.23;10.63;;;14.60;99.90;;;;;;5012789;28;20050;-78
2021/10/12 09:04:58;;;;;;;17.70;10.15;;;14.60;99.90;;;;;;5012843;28;20099;-78
2021/10/12 09:07:30;;;;;;;19.40;10.60;;;14.70;99.90;;;;;;5013012;28;20049;-78
2021/10/12 09:09:57;;;;;;;;;;;14.70;99.90;;;;;;5013198;28;20388;-78
2021/10/12 09:12:45;;;;;;;22.13;11.23;;;14.70;99.90;;;;;;5011324;28;20413;-78
2021/10/12 09:15:12;;;;;;;19.90;11.18;;;14.80;99.90;;;;;;5012230;28;20022;-78
2021/10/12 09:17:40;;;;;;;22.20;10.60;;;14.80;99.90;;;;;;5030617;28;20109;-78
2021/10/12 09:20:12;;;;;;;24.70;12.13;;;14.80;99.90;;;;;;5024251;28;20026;-78
2021/10/12 09:22:39;;;;;;;19.75;10.50;;;14.90;99.90;;;;;;5011786;28;20033;-78
2021/10/12 09:25:08;;;;;;;18.40;11.23;;;14.90;99.90;;;;;;5011298;28;20030;-79
2021/10/12 09:27:54;;;;;;;22.50;12.52;;;15.00;99.90;;;;;;5011871;28;20014;-78
2021/10/12 09:30:31;;;;;;;23.63;12.25;;;15.00;99.90;;;;;;5006545;28;20466;-79
2021/10/12 09:33:05;;;;;;;22.23;12.80;;;15.00;99.90;;;;;;5021941;28;20391;-78
2021/10/12 09:35:35;;;;;;;23.90;13.82;;;15.00;99.90;;;;;;5010953;28;20353;-79
2021/10/12 09:38:12;;;;;;;21.60;12.40;;;15.10;99.90;;;;;;5009769;28;20084;-79
2021/10/12 09:40:42;;;;;;;22.95;12.48;;;15.20;99.90;;;;;;5017821;28;20052;-79
2021/10/12 09:43:08;;;;;;;22.45;10.98;;;15.20;99.90;;;;;;5008863;28;20057;-79
2021/10/12 09:45:35;;;;;;;21.80;11.65;;;15.20;99.90;;;;;;5008418;28;20032;-78
2021/10/12 09:48:32;;;;;;;22.58;10.85;;;15.20;99.90;;;;;;5033800;28;20038;-79
2021/10/12 09:51:15;;;;;;;19.98;11.75;;;15.20;99.90;;;;;;5008722;28;20022;-79
2021/10/12 09:53:43;;;;;;;18.33;11.30;;;15.20;99.90;;;;;;5012357;28;20038;-76
2021/10/12 09:56:10;;;;;;;17.73;10.95;;;15.20;99.90;;;;;;5011479;28;20115;-76
2021/10/12 09:58:43;;;;;;;19.10;11.30;;;15.30;99.90;;;;;;5011521;28;20028;-76
2021/10/12 10:01:10;;;;;;;23.95;12.13;;;15.30;99.90;;;;;;5032151;28;20036;-79
2021/10/12 10:03:36;;;;;;;19.73;10.40;;;15.40;99.90;;;;;;5010304;28;20020;-78
2021/10/12 10:06:14;;;;;;;17.45;9.73;;;15.50;99.90;;;;;;5012448;28;20026;-79
2021/10/12 10:08:43;;;;;;;17.67;9.68;;;15.60;99.90;;;;;;5011559;28;20018;-78
2021/10/12 10:11:10;;;;;;;19.50;10.77;;;15.60;99.90;;;;;;5012047;28;20119;-78
2021/10/12 10:13:38;;;;;;;13.90;8.88;;;15.70;99.90;;;;;;5012139;28;20100;-79
2021/10/12 10:16:09;;;;;;;10.85;6.40;;;15.70;99.90;;;;;;5012542;28;20476;-79
2021/10/12 10:18:43;;;;;;;6.18;5.28;;;15.70;99.90;;;;;;5011930;28;20431;-79
2021/10/12 10:21:11;;;;;;;10.65;6.28;;;15.80;99.90;;;;;;5013488;28;20014;-78
2021/10/12 10:24:09;;;;;;;8.18;5.25;;;15.70;99.00;;;;;;5013198;28;20018;-79
2021/10/12 10:26:38;;;;;;;7.07;5.35;;;15.70;99.90;;;;;;5011885;28;20349;-78
2021/10/12 10:29:38;;;;;;;9.70;6.03;;;15.70;99.10;;;;;;5010354;28;20052;-78
2021/10/12 10:32:15;;;;;;;8.63;5.20;;;15.70;99.40;;;;;;5007849;28;20354;-78
2021/10/12 10:34:43;;;;;;;6.75;4.78;;;15.70;99.40;;;;;;5012957;28;20025;-78
2021/10/12 10:37:18;;;;;;;6.82;4.97;;;15.70;99.90;;;;;;5013560;28;20104;-78
2021/10/12 10:39:48;;;;;;;6.10;4.75;;;15.60;99.50;;;;;;5015117;28;20028;-77
2021/10/12 10:42:25;;;;;;;6.85;4.47;;;15.70;98.90;;;;;;5013046;28;20100;-78
2021/10/12 10:45:03;;;;;;;7.22;4.72;;;15.80;99.90;;;;;;5011807;28;20038;-78
2021/10/12 10:47:41;;;;;;;4.72;3.85;;;15.80;98.80;;;;;;4995891;28;20027;-77
2021/10/12 10:50:29;;;;;;;6.07;3.67;;;15.90;98.80;;;;;;5013662;28;20467;-78
2021/10/12 10:52:57;;;;;;;6.47;3.88;;;16.10;99.90;;;;;;5012790;28;20369;-78
2021/10/12 10:55:31;;;;;;;4.60;4.20;;;16.20;99.40;;;;;;5012761;28;20452;-77
2021/10/12 10:58:17;;;;;;;4.28;3.88;;;16.30;98.00;;;;;;4995230;28;20476;-78
2021/10/12 11:00:52;;;;;;;6.15;4.30;;;16.30;98.40;;;;;;4995292;28;20026;-78
2021/10/12 11:03:31;;;;;;;10.52;4.25;;;16.30;98.70;;;;;;5027729;28;20031;-78
2021/10/12 11:05:58;;;;;;;7.03;4.07;;;16.30;98.50;;;;;;5014309;28;20037;-77
2021/10/12 11:08:24;;;;;;;4.72;4.32;;;16.20;97.60;;;;;;5014759;28;20022;-77
2021/10/12 11:11:01;;;;;;;5.03;4.50;;;16.10;96.50;;;;;;5014330;28;20457;-77
2021/10/12 11:13:38;;;;;;;6.65;4.88;;;16.10;96.60;;;;;;5014900;28;20625;-78
2021/10/12 11:16:07;;;;;;;4.47;4.10;;;16.10;97.80;;;;;;5012642;28;20721;-78
2021/10/12 11:18:33;;;;;;;8.02;5.70;;;16.20;98.40;;;;;;5012735;28;20021;-78
2021/10/12 11:21:02;;;;;;;9.15;4.82;;;16.30;97.70;;;;;;5012843;28;20539;-78
2021/10/12 11:23:41;;;;;;;6.72;4.82;;;16.40;98.40;;;;;;5013123;28;20032;-79
2021/10/12 11:26:18;;;;;;;7.10;5.35;;;16.40;98.20;;;;;;5012720;28;20022;-78
2021/10/12 11:28:51;;;;;;;10.25;6.22;;;16.40;97.40;;;;;;5010943;28;20029;-78
2021/10/12 11:31:19;;;;;;;11.45;6.57;;;16.50;98.30;;;;;;4991242;28;20114;-79
2021/10/12 11:33:47;;;;;;;10.10;6.22;;;16.50;98.50;;;;;;4997481;28;20107;-78
2021/10/12 11:36:18;;;;;;;9.80;6.88;;;16.60;97.10;;;;;;5012728;28;20403;-78
2021/10/12 11:38:48;;;;;;;11.95;7.03;;;16.50;96.80;;;;;;5012951;28;20028;-78
2021/10/12 11:41:32;;;;;;;8.50;6.30;;;16.50;97.30;;;;;;5012913;28;20026;-78
2021/10/12 11:44:00;;;;;;;9.98;6.43;;;16.60;98.50;;;;;;5012937;28;20021;-78
2021/10/12 11:46:27;;;;;;;8.35;6.50;;;16.70;98.50;;;;;;5011635;28;20558;-78
2021/10/12 11:48:53;;;;;;;9.30;6.28;;;16.80;98.70;;;;;;5012872;28;20472;-78
2021/10/12 11:51:32;;;;;;;11.90;5.75;;;16.80;98.60;;;;;;5012768;28;20049;-79
2021/10/12 11:54:00;;;;;;;8.75;6.22;;;16.90;99.00;;;;;;5012779;28;20120;-78
2021/10/12 11:56:26;;;;;;;8.23;6.30;;;16.90;97.40;;;;;;5027862;28;20030;-78
2021/10/12 11:58:58;;;;;;;8.73;5.88;;;16.90;97.50;;;;;;5012656;28;20057;-78
2021/10/12 12:01:35;;;;;;;9.73;6.80;;;17.00;97.90;;;;;;5012579;28;20097;-78
2021/10/12 12:04:02;;;;;;;10.23;6.93;;;17.00;97.20;;;;;;5024087;28;20032;-78
2021/10/12 12:06:33;;;;;;;9.52;6.40;;;17.00;96.90;;;;;;5012638;28;20511;-78
2021/10/12 12:09:24;;;;;;;10.60;6.28;;;17.00;97.30;;;;;;5012483;28;20106;-78
2021/10/12 12:11:52;;;;;;;11.85;6.32;;;17.00;97.30;;;;;;5011987;28;20030;-78
2021/10/12 12:14:25;;;;;;;11.52;6.40;;;17.00;96.70;;;;;;5012393;28;20033;-78
2021/10/12 12:17:20;;;;;;;9.38;6.53;;;17.00;97.40;;;;;;5012408;28;20124;-78
2021/10/12 12:19:56;;;;;;;9.63;6.93;;;17.10;97.40;;;;;;5012183;28;20392;-78
2021/10/12 12:22:28;;;;;;;9.65;7.00;;;17.10;97.50;;;;;;5012208;28;20022;-78
2021/10/12 12:25:07;;;;;;;10.95;6.80;;;17.10;96.60;;;;;;5012261;28;20030;-78
2021/10/12 12:27:52;;;;;;;10.73;5.80;;;17.10;96.40;;;;;;5010981;28;20424;-79
2021/10/12 12:30:47;;;;;;;16.13;7.07;;;17.10;97.60;;;;;;5012045;28;20056;-78
2021/10/12 12:33:13;;;;;;;9.73;6.53;;;17.10;97.30;;;;;;5011967;28;20078;-78
2021/10/12 12:35:43;;;;;;;10.10;6.00;;;17.10;97.10;;;;;;5011787;28;20118;-78